Time;durP1;ratioP1;P1;durP2;ratioP2;P2;SDS_P1;SDS_P2;PMS_P1;PMS_P2;Temp;Humidity;BMP_temperature;BMP_pressure;BME280_temperature;BME280_humidity;BME280_pressure;Samples;Min_cycle;Max_cycle;Signal;HPM_P1;HPM_P2
2023/08/07 00:00:13;;;;;;;0.75;0.70;;;11.40;99.90;;;;;;5002538;28;20080;-39
2023/08/07 00:02:39;;;;;;;0.65;0.65;;;11.50;99.90;;;;;;4999670;28;20038;-42
2023/08/07 00:05:06;;;;;;;1.20;0.90;;;11.40;99.90;;;;;;5005352;28;20034;-37
2023/08/07 00:07:31;;;;;;;1.13;1.13;;;11.40;99.90;;;;;;4999606;28;20061;-40
2023/08/07 00:09:57;;;;;;;1.23;0.90;;;11.40;99.90;;;;;;5004598;28;20116;-40
2023/08/07 00:12:22;;;;;;;1.17;1.08;;;11.40;99.90;;;;;;4995396;28;20871;-39
2023/08/07 00:14:50;;;;;;;0.90;0.90;;;11.40;99.90;;;;;;4991716;28;20481;-40
2023/08/07 00:17:16;;;;;;;1.88;0.73;;;11.40;99.90;;;;;;4986765;28;20049;-37
2023/08/07 00:19:41;;;;;;;1.45;1.10;;;11.40;99.90;;;;;;4993279;28;20034;-33
2023/08/07 00:22:07;;;;;;;1.63;1.23;;;11.40;99.90;;;;;;4998587;28;20676;-31
2023/08/07 00:24:33;;;;;;;1.08;1.00;;;11.40;99.90;;;;;;5002764;28;20103;-34
2023/08/07 00:26:58;;;;;;;1.13;0.80;;;11.40;99.90;;;;;;5002717;28;20022;-35
2023/08/07 00:29:24;;;;;;;2.40;1.00;;;11.30;99.90;;;;;;5005093;28;20041;-31
2023/08/07 00:31:50;;;;;;;1.80;1.00;;;11.30;99.90;;;;;;5000927;28;20129;-31
2023/08/07 00:34:15;;;;;;;2.17;1.10;;;11.30;99.90;;;;;;5003820;28;20033;-31
2023/08/07 00:36:41;;;;;;;2.00;1.00;;;11.40;99.90;;;;;;5003412;28;20104;-31
2023/08/07 00:39:07;;;;;;;1.52;0.90;;;11.30;99.90;;;;;;4990288;28;20025;-32
2023/08/07 00:41:33;;;;;;;1.95;1.10;;;11.30;99.90;;;;;;4990841;28;20030;-31
2023/08/07 00:43:59;;;;;;;0.60;0.60;;;11.30;99.90;;;;;;4978900;28;20580;-31
2023/08/07 00:46:26;;;;;;;1.00;0.90;;;11.30;99.90;;;;;;4997255;28;20100;-32
2023/08/07 00:48:53;;;;;;;1.30;0.90;;;11.30;99.90;;;;;;4988715;28;20488;-31
2023/08/07 00:51:20;;;;;;;1.05;1.00;;;11.30;99.90;;;;;;4987781;28;20574;-32
2023/08/07 00:53:47;;;;;;;1.30;1.20;;;11.20;99.90;;;;;;4996207;28;20030;-33
2023/08/07 00:56:13;;;;;;;1.38;1.00;;;11.20;99.90;;;;;;5003931;28;20533;-34
2023/08/07 00:58:40;;;;;;;1.45;1.05;;;11.20;99.90;;;;;;4990025;28;20106;-37
2023/08/07 01:01:06;;;;;;;2.53;1.00;;;11.30;99.90;;;;;;4989142;28;20038;-39
2023/08/07 01:03:32;;;;;;;1.20;1.10;;;11.30;99.90;;;;;;4987880;28;20022;-33
2023/08/07 01:05:57;;;;;;;1.45;0.85;;;11.30;99.90;;;;;;4987775;28;20044;-41
2023/08/07 01:08:24;;;;;;;1.42;1.25;;;11.30;99.90;;;;;;4986122;28;20037;-41
2023/08/07 01:11:12;;;;;;;1.52;0.90;;;11.30;99.90;;;;;;4987237;28;22079;-42
2023/08/07 01:13:57;;;;;;;2.22;1.27;;;11.30;99.90;;;;;;4991144;28;20568;-38
2023/08/07 01:16:35;;;;;;;1.67;0.90;;;11.30;99.90;;;;;;4979861;28;20111;-37
2023/08/07 01:19:04;;;;;;;1.05;1.00;;;11.30;99.90;;;;;;4983960;28;20033;-35
2023/08/07 01:21:31;;;;;;;1.30;1.20;;;11.30;99.90;;;;;;4986510;28;20438;-36
2023/08/07 01:23:57;;;;;;;2.80;1.00;;;11.30;99.90;;;;;;4972816;28;20467;-38
2023/08/07 01:26:23;;;;;;;0.90;0.90;;;11.30;99.90;;;;;;4989757;28;20041;-38
2023/08/07 01:29:14;;;;;;;1.30;1.20;;;11.30;99.90;;;;;;4989833;28;20046;-34
2023/08/07 01:31:41;;;;;;;1.25;1.00;;;11.30;99.90;;;;;;4992620;28;20034;-40
2023/08/07 01:34:10;;;;;;;1.13;0.93;;;11.30;99.90;;;;;;4989199;28;20052;-37
2023/08/07 01:36:38;;;;;;;;;;;11.30;99.90;;;;;;4991262;28;20882;-40
2023/08/07 01:39:06;;;;;;;;;;;11.20;99.90;;;;;;4990011;28;20090;-40
2023/08/07 01:41:32;;;;;;;1.05;1.00;;;11.20;99.90;;;;;;4988529;28;20008;-40
2023/08/07 01:43:58;;;;;;;1.35;1.20;;;11.20;99.90;;;;;;4987646;28;20044;-38
2023/08/07 01:46:23;;;;;;;2.42;1.15;;;11.20;99.90;;;;;;4997944;28;20029;-38
2023/08/07 01:48:49;;;;;;;1.65;0.98;;;11.30;99.90;;;;;;4989679;28;20114;-38
2023/08/07 01:51:15;;;;;;;0.80;0.80;;;11.30;99.90;;;;;;4993173;28;20041;-37
2023/08/07 01:53:47;;;;;;;2.53;1.10;;;11.30;99.90;;;;;;4970858;28;20471;-37
2023/08/07 01:56:13;;;;;;;1.88;1.20;;;11.30;99.90;;;;;;5001488;28;20112;-39
2023/08/07 01:58:38;;;;;;;1.58;0.95;;;11.30;99.90;;;;;;4995256;28;20381;-41
2023/08/07 02:01:04;;;;;;;1.08;0.98;;;11.30;99.90;;;;;;4991111;28;20096;-44
2023/08/07 02:03:30;;;;;;;0.70;0.70;;;11.30;99.90;;;;;;4992030;28;20651;-35
2023/08/07 02:05:55;;;;;;;2.13;0.85;;;11.30;99.90;;;;;;5005072;28;20023;-40
2023/08/07 02:08:21;;;;;;;1.70;1.55;;;11.30;99.90;;;;;;4996484;28;20109;-40
2023/08/07 02:10:47;;;;;;;4.32;1.27;;;11.30;99.90;;;;;;4998234;28;20116;-38
2023/08/07 02:13:12;;;;;;;1.00;0.90;;;11.30;99.90;;;;;;4995060;28;20062;-36
2023/08/07 02:15:38;;;;;;;0.90;0.90;;;11.30;99.90;;;;;;4992314;28;20029;-34
2023/08/07 02:18:03;;;;;;;1.08;0.90;;;11.30;99.90;;;;;;4990792;28;20549;-34
2023/08/07 02:20:29;;;;;;;1.13;0.95;;;11.30;99.90;;;;;;4972710;28;20640;-35
2023/08/07 02:22:55;;;;;;;1.15;1.00;;;11.30;99.90;;;;;;4975111;28;20030;-35
2023/08/07 02:25:20;;;;;;;1.38;1.27;;;11.30;99.90;;;;;;4991965;28;20491;-37
2023/08/07 02:27:46;;;;;;;1.00;1.00;;;11.30;99.90;;;;;;4988318;28;20054;-36
2023/08/07 02:30:12;;;;;;;2.40;1.25;;;11.30;99.90;;;;;;4991683;28;20037;-37
2023/08/07 02:32:37;;;;;;;1.17;0.90;;;11.30;99.90;;;;;;4985872;28;20034;-38
2023/08/07 02:35:03;;;;;;;1.83;1.25;;;11.30;99.90;;;;;;4990116;28;20033;-36
2023/08/07 02:37:29;;;;;;;1.05;1.00;;;11.30;99.90;;;;;;4988454;28;20046;-34
2023/08/07 02:39:54;;;;;;;1.52;0.82;;;11.30;99.90;;;;;;4993177;28;20040;-36
2023/08/07 02:42:20;;;;;;;1.38;1.00;;;11.30;99.90;;;;;;4988747;28;20042;-37
2023/08/07 02:44:46;;;;;;;1.25;1.17;;;11.30;99.90;;;;;;4989224;28;20030;-37
2023/08/07 02:47:11;;;;;;;1.48;1.10;;;11.30;99.90;;;;;;4993485;28;20038;-33
2023/08/07 02:49:37;;;;;;;1.27;1.20;;;11.30;99.90;;;;;;4973731;28;20034;-35
2023/08/07 02:52:03;;;;;;;2.00;1.25;;;11.30;99.90;;;;;;4988985;28;20036;-33
2023/08/07 02:54:28;;;;;;;2.40;1.05;;;11.40;99.90;;;;;;4990187;28;20025;-33
2023/08/07 02:56:54;;;;;;;1.27;1.00;;;11.30;99.90;;;;;;5001184;28;20140;-33
2023/08/07 02:59:19;;;;;;;1.17;0.90;;;11.30;99.90;;;;;;5000241;28;20022;-33
2023/08/07 03:01:45;;;;;;;1.00;0.95;;;11.30;99.90;;;;;;4986196;28;20124;-35
2023/08/07 03:04:11;;;;;;;2.67;1.08;;;11.30;99.90;;;;;;4977106;28;20433;-35
2023/08/07 03:06:36;;;;;;;1.27;1.17;;;11.40;99.90;;;;;;4985492;28;20029;-34
2023/08/07 03:09:02;;;;;;;2.42;1.23;;;11.40;99.90;;;;;;4985451;28;20495;-34
2023/08/07 03:11:28;;;;;;;2.15;1.00;;;11.40;99.90;;;;;;4981021;28;20566;-32
2023/08/07 03:13:53;;;;;;;2.03;1.15;;;11.40;99.90;;;;;;4994058;28;20600;-31
2023/08/07 03:16:19;;;;;;;1.38;1.13;;;11.40;99.90;;;;;;5005899;28;20029;-32
2023/08/07 03:18:45;;;;;;;1.80;1.13;;;11.40;99.90;;;;;;5000242;28;20091;-41
2023/08/07 03:21:10;;;;;;;2.13;1.17;;;11.40;99.90;;;;;;5005035;28;20033;-33
2023/08/07 03:23:36;;;;;;;1.75;1.13;;;11.50;99.90;;;;;;4987291;28;20395;-34
2023/08/07 03:26:06;;;;;;;1.10;1.10;;;11.40;99.90;;;;;;5005178;28;20022;-35
2023/08/07 03:28:32;;;;;;;2.20;1.17;;;11.40;99.90;;;;;;5000029;28;20439;-36
2023/08/07 03:30:58;;;;;;;2.08;1.30;;;11.40;99.90;;;;;;5005369;28;20041;-34
2023/08/07 03:33:24;;;;;;;2.22;1.10;;;11.50;99.90;;;;;;5000925;28;20037;-34
2023/08/07 03:35:49;;;;;;;2.75;1.27;;;11.40;99.90;;;;;;5003226;28;20029;-37
2023/08/07 03:38:15;;;;;;;2.80;1.45;;;11.50;99.90;;;;;;5002784;28;20050;-35
2023/08/07 03:40:40;;;;;;;1.05;1.00;;;11.50;99.90;;;;;;5007350;28;20072;-34
2023/08/07 03:43:06;;;;;;;1.20;1.10;;;11.50;99.90;;;;;;5000825;28;20022;-36
2023/08/07 03:45:32;;;;;;;1.58;1.35;;;11.50;99.90;;;;;;5001781;28;20037;-35
2023/08/07 03:47:57;;;;;;;1.58;1.23;;;11.50;99.90;;;;;;5004849;28;20069;-32
2023/08/07 03:50:23;;;;;;;1.15;1.08;;;11.40;99.90;;;;;;5005249;28;20066;-33
2023/08/07 03:52:48;;;;;;;2.58;1.30;;;11.50;99.90;;;;;;5009707;28;20033;-30
2023/08/07 03:55:14;;;;;;;1.30;1.10;;;11.50;99.90;;;;;;5005416;28;20040;-31
2023/08/07 03:57:40;;;;;;;3.92;1.20;;;11.50;99.90;;;;;;5005868;28;20700;-30
2023/08/07 04:00:07;;;;;;;1.27;1.17;;;11.40;99.90;;;;;;5003598;28;20141;-33
2023/08/07 04:02:32;;;;;;;3.00;1.65;;;11.40;99.90;;;;;;5010087;28;20042;-32
2023/08/07 04:04:58;;;;;;;1.20;1.10;;;11.40;99.90;;;;;;5003586;28;20038;-30
2023/08/07 04:07:23;;;;;;;1.95;1.17;;;11.40;99.90;;;;;;5006099;28;20840;-34
2023/08/07 04:09:49;;;;;;;1.20;1.10;;;11.40;99.90;;;;;;5006809;28;20021;-33
2023/08/07 04:12:15;;;;;;;1.08;1.08;;;11.50;99.90;;;;;;5004402;28;20080;-33
2023/08/07 04:14:40;;;;;;;2.45;1.10;;;11.50;99.90;;;;;;5003362;28;20069;-33
2023/08/07 04:17:06;;;;;;;1.92;1.15;;;11.40;99.90;;;;;;5006772;28;20037;-33
2023/08/07 04:19:32;;;;;;;3.47;1.23;;;11.40;99.90;;;;;;5007895;28;20110;-39
2023/08/07 04:21:58;;;;;;;1.52;1.25;;;11.40;99.90;;;;;;4985723;28;20022;-40
2023/08/07 04:24:23;;;;;;;2.10;1.23;;;11.50;99.90;;;;;;4993475;28;20049;-39
2023/08/07 04:26:49;;;;;;;1.35;1.20;;;11.40;99.90;;;;;;4997155;28;20029;-40
2023/08/07 04:29:14;;;;;;;1.70;1.05;;;11.50;99.90;;;;;;5001761;28;20404;-39
2023/08/07 04:31:40;;;;;;;2.78;1.33;;;11.40;99.90;;;;;;5004040;28;20548;-40
2023/08/07 04:34:06;;;;;;;2.35;0.98;;;11.40;99.90;;;;;;5000897;28;20120;-38
2023/08/07 04:36:31;;;;;;;2.47;1.45;;;11.40;99.90;;;;;;5004111;28;20467;-38
2023/08/07 04:38:57;;;;;;;1.40;1.10;;;11.30;99.90;;;;;;5002878;28;20041;-41
2023/08/07 04:41:23;;;;;;;3.35;1.23;;;11.30;99.90;;;;;;5001862;28;20699;-39
2023/08/07 04:43:49;;;;;;;1.65;1.13;;;11.30;99.90;;;;;;5003513;28;20022;-41
2023/08/07 04:46:14;;;;;;;1.35;1.13;;;11.40;99.90;;;;;;5003873;28;20820;-40
2023/08/07 04:48:40;;;;;;;3.25;1.50;;;11.30;99.90;;;;;;4993263;28;20472;-40
2023/08/07 04:51:06;;;;;;;1.23;1.00;;;11.30;99.90;;;;;;5004974;28;20506;-38
2023/08/07 04:53:32;;;;;;;1.10;1.10;;;11.30;99.90;;;;;;5006545;28;20117;-38
2023/08/07 04:55:59;;;;;;;1.15;1.05;;;11.30;99.90;;;;;;5002353;28;20041;-41
2023/08/07 04:58:25;;;;;;;2.03;1.38;;;11.30;99.90;;;;;;5006387;28;20049;-40
2023/08/07 05:00:58;;;;;;;2.17;1.25;;;11.30;99.90;;;;;;5005428;28;20038;-33
2023/08/07 05:03:25;;;;;;;2.60;1.10;;;11.40;99.90;;;;;;5005312;28;20022;-31
2023/08/07 05:05:50;;;;;;;3.08;1.17;;;11.40;99.90;;;;;;5011467;28;20104;-34
2023/08/07 05:08:16;;;;;;;1.23;1.00;;;11.40;99.90;;;;;;5010621;28;20096;-32
2023/08/07 05:10:42;;;;;;;1.35;0.90;;;11.40;99.90;;;;;;5004796;28;20053;-33
2023/08/07 05:13:08;;;;;;;3.45;1.33;;;11.40;99.90;;;;;;5002860;28;20903;-36
2023/08/07 05:15:34;;;;;;;3.53;1.10;;;11.40;99.90;;;;;;5011274;28;20383;-31
2023/08/07 05:17:59;;;;;;;3.05;1.00;;;11.50;99.90;;;;;;5007715;28;20034;-32
2023/08/07 05:20:25;;;;;;;1.45;1.10;;;11.50;99.90;;;;;;5010832;28;20109;-31
2023/08/07 05:22:51;;;;;;;1.20;1.10;;;11.40;99.90;;;;;;5010429;28;20164;-31
2023/08/07 05:25:17;;;;;;;1.20;1.10;;;11.40;99.90;;;;;;5002913;28;20288;-32
2023/08/07 05:27:43;;;;;;;1.58;1.20;;;11.50;99.90;;;;;;5005721;28;20343;-30
2023/08/07 05:30:09;;;;;;;1.85;1.10;;;11.40;99.90;;;;;;5008472;28;20044;-31
2023/08/07 05:32:39;;;;;;;1.92;1.13;;;11.40;99.90;;;;;;5009102;28;20081;-33
2023/08/07 05:35:06;;;;;;;2.60;1.20;;;11.40;99.90;;;;;;4992796;28;20041;-34
2023/08/07 05:37:35;;;;;;;1.50;1.17;;;11.50;99.90;;;;;;4998643;28;20500;-31
2023/08/07 05:40:02;;;;;;;2.38;1.20;;;11.50;99.90;;;;;;5011701;28;20032;-41
2023/08/07 05:42:28;;;;;;;1.73;1.20;;;11.60;99.90;;;;;;5002359;28;20025;-40
2023/08/07 05:44:53;;;;;;;2.22;1.17;;;11.60;99.90;;;;;;5008181;28;20037;-41
2023/08/07 05:47:19;;;;;;;1.45;1.27;;;11.60;99.90;;;;;;5003261;28;20030;-40
2023/08/07 05:49:44;;;;;;;1.48;1.30;;;11.70;99.90;;;;;;5003112;28;20169;-39
2023/08/07 05:52:10;;;;;;;1.40;1.30;;;11.80;99.90;;;;;;5007041;28;20022;-41
2023/08/07 05:54:36;;;;;;;4.30;1.17;;;11.80;99.90;;;;;;5011439;28;20061;-38
2023/08/07 05:57:01;;;;;;;2.10;1.25;;;11.90;99.90;;;;;;4986876;28;20034;-39
2023/08/07 05:59:27;;;;;;;1.17;1.08;;;12.00;99.90;;;;;;5006123;28;20029;-40
2023/08/07 06:01:53;;;;;;;1.85;1.40;;;12.10;99.90;;;;;;4996862;28;20848;-40
2023/08/07 06:04:19;;;;;;;1.27;1.10;;;12.20;99.90;;;;;;5005046;28;20109;-41
2023/08/07 06:06:45;;;;;;;2.00;1.27;;;12.30;99.90;;;;;;5003271;28;20112;-41
2023/08/07 06:09:12;;;;;;;2.17;1.33;;;12.40;99.90;;;;;;5006632;28;21697;-31
2023/08/07 06:11:37;;;;;;;1.17;1.08;;;12.50;99.90;;;;;;5007426;28;20053;-31
2023/08/07 06:14:03;;;;;;;2.60;1.25;;;12.60;99.90;;;;;;4999511;28;20117;-31
2023/08/07 06:16:29;;;;;;;3.47;1.25;;;12.60;99.90;;;;;;5003357;28;20104;-30
2023/08/07 06:18:55;;;;;;;1.88;1.15;;;12.70;99.90;;;;;;5004053;28;20034;-32
2023/08/07 06:21:21;;;;;;;1.00;1.00;;;12.70;99.90;;;;;;5007593;28;20025;-34
2023/08/07 06:23:47;;;;;;;3.05;0.98;;;12.60;99.90;;;;;;5005894;28;20117;-30
2023/08/07 06:26:12;;;;;;;1.80;0.98;;;12.60;99.90;;;;;;5004547;28;20113;-31
2023/08/07 06:28:38;;;;;;;1.63;1.40;;;12.60;99.90;;;;;;5004356;28;20482;-31
2023/08/07 06:31:06;;;;;;;1.25;1.15;;;12.70;99.90;;;;;;5003205;28;20038;-31
2023/08/07 06:33:33;;;;;;;2.38;1.23;;;12.80;99.90;;;;;;5006653;28;20941;-31
2023/08/07 06:35:59;;;;;;;1.60;1.20;;;12.80;99.90;;;;;;5008060;28;20034;-32
2023/08/07 06:38:24;;;;;;;1.15;1.05;;;12.80;99.90;;;;;;5006116;28;20037;-31
2023/08/07 06:40:50;;;;;;;1.23;1.10;;;12.90;99.90;;;;;;5005666;28;20017;-32
2023/08/07 06:43:16;;;;;;;1.77;1.20;;;12.90;99.90;;;;;;5010549;28;20042;-32
2023/08/07 06:45:41;;;;;;;1.33;1.05;;;12.90;99.90;;;;;;4991608;28;20097;-33
2023/08/07 06:48:07;;;;;;;1.42;1.08;;;13.10;99.90;;;;;;4993882;28;20462;-36
2023/08/07 06:50:32;;;;;;;1.92;1.15;;;13.10;99.90;;;;;;4988314;28;20033;-40
2023/08/07 06:52:58;;;;;;;2.97;1.30;;;13.10;99.90;;;;;;4997727;28;20048;-40
2023/08/07 06:55:24;;;;;;;1.00;0.98;;;13.20;99.90;;;;;;5003420;28;20030;-40
2023/08/07 06:57:50;;;;;;;1.98;1.23;;;13.20;99.90;;;;;;4986975;28;20038;-40
2023/08/07 07:00:16;;;;;;;1.67;1.00;;;13.20;99.90;;;;;;5003558;28;20037;-41
2023/08/07 07:02:41;;;;;;;2.47;1.40;;;13.30;99.90;;;;;;4995951;28;21136;-40
2023/08/07 07:05:07;;;;;;;1.25;1.10;;;13.50;99.90;;;;;;4991595;28;20033;-37
2023/08/07 07:07:33;;;;;;;1.83;1.27;;;13.50;99.90;;;;;;5014409;28;20502;-40
2023/08/07 07:10:00;;;;;;;1.15;0.93;;;13.50;99.90;;;;;;4988681;28;20042;-38
2023/08/07 07:12:26;;;;;;;2.00;1.10;;;13.40;99.90;;;;;;4983777;28;20050;-39
2023/08/07 07:14:52;;;;;;;1.95;1.17;;;13.40;99.90;;;;;;4987835;28;20550;-41
2023/08/07 07:17:18;;;;;;;1.75;1.20;;;13.60;99.90;;;;;;4989721;28;20096;-40
2023/08/07 07:19:43;;;;;;;0.90;0.90;;;13.60;99.90;;;;;;4986770;28;20034;-33
2023/08/07 07:22:09;;;;;;;1.23;1.13;;;13.60;99.90;;;;;;5024423;28;20034;-32
2023/08/07 07:24:35;;;;;;;1.70;1.17;;;13.70;99.90;;;;;;4993494;28;20107;-32
2023/08/07 07:27:01;;;;;;;1.13;1.00;;;13.70;99.90;;;;;;5012730;28;20069;-36
2023/08/07 07:29:26;;;;;;;1.92;1.13;;;13.80;99.90;;;;;;5000901;28;20167;-32
2023/08/07 07:31:54;;;;;;;1.90;1.35;;;13.90;99.90;;;;;;5002583;28;20062;-32
2023/08/07 07:34:20;;;;;;;4.32;1.48;;;13.90;99.90;;;;;;4987569;28;20034;-32
2023/08/07 07:36:46;;;;;;;1.33;0.90;;;13.90;99.90;;;;;;5007544;28;20454;-33
2023/08/07 07:39:11;;;;;;;1.20;1.10;;;14.00;99.90;;;;;;4985470;28;20030;-31
2023/08/07 07:41:37;;;;;;;1.98;1.20;;;13.90;99.90;;;;;;5000022;28;20303;-34
2023/08/07 07:44:03;;;;;;;2.70;1.15;;;14.00;99.90;;;;;;5009580;28;20605;-33
2023/08/07 07:46:28;;;;;;;2.50;1.10;;;13.80;99.90;;;;;;5002025;28;20026;-32
2023/08/07 07:48:55;;;;;;;1.23;1.00;;;13.90;99.90;;;;;;5011525;28;20025;-33
2023/08/07 07:51:21;;;;;;;1.45;1.10;;;13.80;99.90;;;;;;5006730;28;20034;-32
2023/08/07 07:53:47;;;;;;;1.73;1.02;;;13.70;99.90;;;;;;5001412;28;20032;-36
2023/08/07 07:56:13;;;;;;;1.40;1.10;;;13.60;99.90;;;;;;5001376;28;20506;-32
2023/08/07 07:58:40;;;;;;;1.63;1.02;;;13.70;99.90;;;;;;5000406;28;20034;-31
2023/08/07 08:01:06;;;;;;;1.52;1.42;;;13.70;99.90;;;;;;4999010;28;20426;-38
2023/08/07 08:03:32;;;;;;;1.30;1.20;;;13.90;99.90;;;;;;5004131;28;20031;-39
2023/08/07 08:05:57;;;;;;;1.73;1.15;;;13.90;99.90;;;;;;5004219;28;20029;-40
2023/08/07 08:08:23;;;;;;;1.40;1.25;;;13.80;99.90;;;;;;4984026;28;20092;-40
2023/08/07 08:10:50;;;;;;;1.05;0.95;;;13.60;99.90;;;;;;5009006;28;20033;-40
2023/08/07 08:13:16;;;;;;;2.55;1.23;;;13.50;99.90;;;;;;5003347;28;20116;-35
2023/08/07 08:15:41;;;;;;;4.15;1.15;;;13.50;99.90;;;;;;4994760;28;20121;-36
2023/08/07 08:18:07;;;;;;;2.45;1.77;;;13.60;99.90;;;;;;5001575;28;20483;-41
2023/08/07 08:20:33;;;;;;;2.25;1.00;;;13.90;99.90;;;;;;5003499;28;20459;-41
2023/08/07 08:22:59;;;;;;;3.60;1.23;;;13.90;99.90;;;;;;5000062;28;20382;-40
2023/08/07 08:25:24;;;;;;;2.25;0.90;;;14.00;99.90;;;;;;5005272;28;20061;-41
2023/08/07 08:27:51;;;;;;;1.30;1.15;;;14.20;99.90;;;;;;5000091;28;20073;-40
2023/08/07 08:30:17;;;;;;;1.27;1.15;;;14.10;99.90;;;;;;5010542;28;20097;-33
2023/08/07 08:32:43;;;;;;;2.05;1.27;;;14.10;99.90;;;;;;5005857;28;20471;-30
2023/08/07 08:35:09;;;;;;;1.52;1.40;;;14.00;99.90;;;;;;5001577;28;20040;-31
2023/08/07 08:37:35;;;;;;;2.15;1.38;;;14.10;99.90;;;;;;5012185;28;20474;-33
2023/08/07 08:40:01;;;;;;;2.17;1.10;;;14.40;99.90;;;;;;4987510;28;20034;-31
2023/08/07 08:42:27;;;;;;;2.03;1.10;;;14.90;99.90;;;;;;5010276;28;20045;-33
2023/08/07 08:44:56;;;;;;;1.20;1.20;;;15.40;99.90;;;;;;5011409;28;20048;-30
2023/08/07 08:47:25;;;;;;;1.00;0.95;;;14.90;99.90;;;;;;5019775;28;20022;-31
2023/08/07 08:50:02;;;;;;;2.92;1.42;;;14.60;99.90;;;;;;5006895;28;20033;-30
2023/08/07 08:52:28;;;;;;;1.75;1.30;;;14.50;99.90;;;;;;4988769;28;20119;-33
2023/08/07 08:54:55;;;;;;;2.03;1.15;;;14.60;99.90;;;;;;5005757;28;21757;-31
2023/08/07 08:57:22;;;;;;;2.22;1.13;;;14.50;99.90;;;;;;4995434;28;20018;-33
2023/08/07 08:59:49;;;;;;;1.60;1.27;;;14.50;99.90;;;;;;5002724;28;20481;-35
2023/08/07 09:02:15;;;;;;;1.55;1.20;;;14.40;99.90;;;;;;5001306;28;20045;-36
2023/08/07 09:04:42;;;;;;;2.17;1.20;;;14.40;99.90;;;;;;4998767;28;20038;-30
2023/08/07 09:07:09;;;;;;;2.70;2.03;;;14.60;99.90;;;;;;4985510;28;20026;-35
2023/08/07 09:09:35;;;;;;;1.38;1.17;;;14.40;99.90;;;;;;5007899;28;20033;-42
2023/08/07 09:12:02;;;;;;;3.95;1.30;;;14.30;99.90;;;;;;5011191;28;20062;-41
2023/08/07 09:14:31;;;;;;;1.60;1.35;;;14.50;99.90;;;;;;5001483;28;20561;-37
2023/08/07 09:16:59;;;;;;;1.42;1.20;;;14.60;99.90;;;;;;5004232;28;21351;-38
2023/08/07 09:19:25;;;;;;;;;;;14.70;99.90;;;;;;5005914;28;20668;-42
2023/08/07 09:21:51;;;;;;;1.40;1.30;;;14.90;99.90;;;;;;5002527;28;19913;-40
2023/08/07 09:24:18;;;;;;;1.38;1.27;;;14.90;99.90;;;;;;5005591;28;20085;-40
2023/08/07 09:26:44;;;;;;;2.53;1.23;;;15.10;99.90;;;;;;4999346;28;20562;-40
2023/08/07 09:29:10;;;;;;;1.77;1.30;;;15.00;99.90;;;;;;5005972;28;20046;-42
2023/08/07 09:31:37;;;;;;;1.70;1.60;;;15.00;99.90;;;;;;5010632;28;20041;-41
2023/08/07 09:34:04;;;;;;;2.73;1.13;;;15.10;99.90;;;;;;5004694;28;20502;-40
2023/08/07 09:36:31;;;;;;;1.75;1.00;;;15.20;99.90;;;;;;5001776;28;20606;-40
2023/08/07 09:39:01;;;;;;;1.40;1.30;;;15.10;99.90;;;;;;5000407;28;20487;-31
2023/08/07 09:41:29;;;;;;;1.38;1.25;;;15.20;99.90;;;;;;5002194;28;20038;-33
2023/08/07 09:43:55;;;;;;;2.03;1.30;;;15.10;99.90;;;;;;5004281;28;20029;-30
2023/08/07 09:46:21;;;;;;;2.10;1.48;;;15.10;99.90;;;;;;5005600;28;20296;-34
2023/08/07 09:48:47;;;;;;;3.13;1.60;;;15.50;99.90;;;;;;5010476;28;20022;-33
2023/08/07 09:51:13;;;;;;;1.42;1.20;;;16.00;99.90;;;;;;5009967;28;20522;-30
2023/08/07 09:53:38;;;;;;;1.80;1.55;;;16.10;99.90;;;;;;5007055;28;20111;-33
2023/08/07 09:56:05;;;;;;;1.75;1.10;;;16.10;99.90;;;;;;5012349;28;20391;-30
2023/08/07 09:58:31;;;;;;;2.42;1.17;;;16.20;99.90;;;;;;5011947;28;20034;-30
2023/08/07 10:01:05;;;;;;;2.20;1.27;;;16.00;99.90;;;;;;4998850;28;20517;-32
2023/08/07 10:03:31;;;;;;;1.38;1.27;;;16.00;99.90;;;;;;5010606;28;20021;-30
2023/08/07 10:05:57;;;;;;;1.05;1.05;;;16.20;99.90;;;;;;4995464;28;20417;-31
2023/08/07 10:08:24;;;;;;;1.77;1.40;;;16.00;99.90;;;;;;5005317;28;20030;-33
2023/08/07 10:10:49;;;;;;;1.95;1.25;;;15.80;99.90;;;;;;5011359;28;20045;-32
2023/08/07 10:13:15;;;;;;;1.55;1.20;;;15.90;99.90;;;;;;5004691;28;20038;-30
2023/08/07 10:15:42;;;;;;;1.20;1.10;;;15.90;99.90;;;;;;5006620;28;20040;-35
2023/08/07 10:18:08;;;;;;;1.10;1.00;;;15.90;99.90;;;;;;5002539;28;20029;-30
2023/08/07 10:20:34;;;;;;;2.58;0.98;;;15.70;99.90;;;;;;5009022;28;20018;-43
2023/08/07 10:23:06;;;;;;;1.70;1.00;;;15.60;99.90;;;;;;5005682;28;20030;-38
2023/08/07 10:25:32;;;;;;;1.30;0.90;;;15.60;99.90;;;;;;4986140;28;20383;-39
2023/08/07 10:28:00;;;;;;;2.55;1.05;;;15.40;99.90;;;;;;5003102;28;20452;-39
2023/08/07 10:30:26;;;;;;;2.10;0.95;;;15.20;99.90;;;;;;5004002;28;20215;-37
2023/08/07 10:32:53;;;;;;;1.33;1.00;;;15.10;99.90;;;;;;5000855;28;20125;-42
2023/08/07 10:35:25;;;;;;;1.20;1.10;;;15.00;99.90;;;;;;5011590;28;20086;-40
2023/08/07 10:37:53;;;;;;;1.70;1.02;;;15.00;99.90;;;;;;5004031;28;20080;-39
2023/08/07 10:40:21;;;;;;;1.38;1.27;;;15.10;99.90;;;;;;5005779;28;20041;-38
2023/08/07 10:42:59;;;;;;;1.00;1.00;;;15.00;99.90;;;;;;5023065;28;20530;-42
2023/08/07 10:45:27;;;;;;;1.63;0.90;;;15.00;99.90;;;;;;5002947;28;20026;-43
2023/08/07 10:48:05;;;;;;;1.08;0.98;;;15.00;99.90;;;;;;5002616;28;20497;-41
2023/08/07 10:50:35;;;;;;;1.08;0.80;;;15.20;99.90;;;;;;5005626;28;20037;-40
2023/08/07 10:53:02;;;;;;;1.33;1.10;;;15.20;99.90;;;;;;5002286;28;20042;-38
2023/08/07 10:55:47;;;;;;;1.60;1.13;;;15.30;99.90;;;;;;5004621;28;20034;-40
2023/08/07 10:58:32;;;;;;;2.45;1.27;;;15.30;99.90;;;;;;4998356;28;20045;-39
2023/08/07 11:01:20;;;;;;;1.17;1.08;;;15.50;99.90;;;;;;4998389;28;20029;-39
2023/08/07 11:03:57;;;;;;;;;;;15.60;99.90;;;;;;5005814;28;20076;-40
2023/08/07 11:06:28;;;;;;;1.23;1.00;;;15.80;99.90;;;;;;5009911;28;19921;-40
2023/08/07 11:08:54;;;;;;;1.33;1.08;;;16.10;99.90;;;;;;4982316;28;20034;-40
2023/08/07 11:11:20;;;;;;;1.30;1.15;;;16.20;99.90;;;;;;5007589;28;20087;-41
2023/08/07 11:13:46;;;;;;;1.20;1.10;;;16.10;99.90;;;;;;5003498;28;20112;-38
2023/08/07 11:16:12;;;;;;;1.88;0.80;;;16.30;99.90;;;;;;5007928;28;20030;-40
2023/08/07 11:18:41;;;;;;;4.85;1.38;;;16.40;99.90;;;;;;5004276;28;20037;-41
2023/08/07 11:21:11;;;;;;;1.00;1.00;;;16.30;99.90;;;;;;5008438;28;20658;-39
2023/08/07 11:23:38;;;;;;;0.88;0.88;;;16.40;99.90;;;;;;5003719;28;20080;-40
2023/08/07 11:26:03;;;;;;;3.33;1.10;;;16.70;99.90;;;;;;5004087;28;20029;-41
2023/08/07 11:28:29;;;;;;;1.02;0.90;;;16.90;99.90;;;;;;5006542;28;20427;-38
2023/08/07 11:30:56;;;;;;;1.20;1.10;;;16.70;99.90;;;;;;4989423;28;20807;-32
2023/08/07 11:33:23;;;;;;;1.20;1.10;;;16.50;99.90;;;;;;5002643;28;20080;-35
2023/08/07 11:35:50;;;;;;;1.88;1.20;;;16.50;99.90;;;;;;5001514;28;20037;-32
2023/08/07 11:38:30;;;;;;;1.05;0.95;;;16.70;99.90;;;;;;5005716;28;20037;-34
2023/08/07 11:40:58;;;;;;;2.38;1.08;;;16.50;99.90;;;;;;5005594;28;20034;-34
2023/08/07 11:43:24;;;;;;;1.20;1.10;;;16.70;99.90;;;;;;5009283;28;20026;-32
2023/08/07 11:45:50;;;;;;;1.17;0.95;;;16.90;99.90;;;;;;5005166;28;20028;-33
2023/08/07 11:48:16;;;;;;;0.85;0.85;;;17.00;99.90;;;;;;5000977;28;20034;-33
2023/08/07 11:50:42;;;;;;;1.52;0.90;;;17.30;99.90;;;;;;5003146;28;20030;-32
2023/08/07 11:53:08;;;;;;;0.90;0.90;;;17.60;99.90;;;;;;4994629;28;20038;-31
2023/08/07 11:55:34;;;;;;;1.13;1.00;;;17.80;99.90;;;;;;4986895;28;20521;-31
2023/08/07 11:58:03;;;;;;;1.23;0.93;;;17.30;99.90;;;;;;4999680;28;20053;-32
2023/08/07 12:00:29;;;;;;;2.25;0.60;;;17.20;99.90;;;;;;5007038;28;20100;-32
2023/08/07 12:02:54;;;;;;;1.05;0.85;;;17.20;99.90;;;;;;4978915;28;20471;-31
2023/08/07 12:05:20;;;;;;;1.65;1.00;;;17.10;99.90;;;;;;4981431;28;20035;-32
2023/08/07 12:07:47;;;;;;;1.40;1.00;;;16.80;99.90;;;;;;4977824;28;20030;-35
2023/08/07 12:10:13;;;;;;;1.90;1.10;;;16.70;99.90;;;;;;4976747;28;20448;-31
2023/08/07 12:12:39;;;;;;;1.13;1.02;;;17.00;99.90;;;;;;4979397;28;20042;-32
2023/08/07 12:15:08;;;;;;;0.77;0.77;;;17.30;99.90;;;;;;4975999;28;20043;-32
2023/08/07 12:17:35;;;;;;;0.70;0.70;;;17.20;99.90;;;;;;4973266;28;20034;-32
2023/08/07 12:20:06;;;;;;;1.15;1.00;;;17.10;99.90;;;;;;4982873;28;20406;-33
2023/08/07 12:22:31;;;;;;;0.90;0.90;;;17.00;99.90;;;;;;4982803;28;20023;-31
2023/08/07 12:24:57;;;;;;;1.20;1.10;;;16.90;99.90;;;;;;4974734;28;20388;-33
2023/08/07 12:27:22;;;;;;;1.05;0.95;;;16.70;99.90;;;;;;4981113;28;20125;-32
2023/08/07 12:29:48;;;;;;;0.90;0.90;;;16.90;99.90;;;;;;4979159;28;20046;-32
2023/08/07 12:32:15;;;;;;;0.93;0.68;;;16.80;99.90;;;;;;4989360;28;20088;-33
2023/08/07 12:34:41;;;;;;;1.98;1.00;;;16.80;99.90;;;;;;4997417;28;20490;-32
2023/08/07 12:37:06;;;;;;;0.90;0.70;;;16.70;99.90;;;;;;5017727;28;20126;-32
2023/08/07 12:39:32;;;;;;;1.95;1.40;;;16.80;99.90;;;;;;5017855;28;20025;-36
2023/08/07 12:41:58;;;;;;;1.42;0.90;;;16.90;99.90;;;;;;5015733;28;20030;-39
2023/08/07 12:44:24;;;;;;;1.13;0.90;;;16.90;99.90;;;;;;5016898;28;20033;-39